Time,TemperatureF,DewpointF,PressureIn,WindDirection,WindDirectionDegrees,WindSpeedMPH,WindSpeedGustMPH,Humidity,HourlyPrecipIn,Conditions,Clouds,dailyrainin,SoftwareType,DateUTC
2013-07-11 00:00:00,80.0,76.0,29.96,SSE,149,1.0,5.0,86,0.00,,,0.00,weatherlink.com 1.10,2013-07-11 05:00:00,
2013-07-11 00:15:00,79.7,76.0,29.96,ESE,121,2.0,5.0,87,0.00,,,0.00,weatherlink.com 1.10,2013-07-11 05:15:00,
2013-07-11 00:30:00,79.4,75.0,29.96,SE,134,2.0,5.0,87,0.00,,,0.00,weatherlink.com 1.10,2013-07-11 05:30:00,
2013-07-11 00:45:00,79.2,75.0,29.96,SE,140,2.0,3.0,88,0.00,,,0.00,weatherlink.com 1.10,2013-07-11 05:45:00,
2013-07-11 01:00:00,79.1,75.0,29.96,SSE,165,1.0,4.0,88,0.00,,,0.00,weatherlink.com 1.10,2013-07-11 06:00:00,
2013-07-11 01:15:00,78.9,75.0,29.95,ESE,110,2.0,6.0,88,0.00,,,0.00,weatherlink.com 1.10,2013-07-11 06:15:00,
2013-07-11 01:30:00,78.9,76.0,29.95,SE,140,2.0,5.0,89,0.00,,,0.00,weatherlink.com 1.10,2013-07-11 06:30:00,
2013-07-11 01:45:00,78.8,75.0,29.95,ESE,110,1.0,5.0,89,0.00,,,0.00,weatherlink.com 1.10,2013-07-11 06:45:00,
2013-07-11 02:00:00,78.6,76.0,29.95,ESE,121,2.0,5.0,90,0.00,,,0.00,weatherlink.com 1.10,2013-07-11 07:00:00,
2013-07-11 02:15:00,78.6,76.0,29.94,SSE,156,4.0,6.0,90,0.00,,,0.00,weatherlink.com 1.10,2013-07-11 07:15:00,
2013-07-11 02:30:00,78.6,76.0,29.94,SE,141,3.0,7.0,90,0.00,,,0.00,weatherlink.com 1.10,2013-07-11 07:30:00,
2013-07-11 02:45:00,78.4,75.0,29.94,ESE,120,3.0,5.0,90,0.00,,,0.00,weatherlink.com 1.10,2013-07-11 07:45:00,
2013-07-11 03:00:00,78.1,75.0,29.95,SE,142,1.0,4.0,91,0.00,,,0.00,weatherlink.com 1.10,2013-07-11 08:00:00,
2013-07-11 03:15:00,78.0,75.0,29.95,SSE,165,1.0,4.0,91,0.00,,,0.00,weatherlink.com 1.10,2013-07-11 08:15:00,
2013-07-11 03:31:00,77.6,75.0,29.95,SE,125,2.0,2.0,91,0.00,,,0.00,weatherlink.com 1.10,2013-07-11 08:31:00,
2013-07-11 03:45:00,77.3,75.0,29.95,SE,127,2.0,3.0,91,0.00,,,0.00,weatherlink.com 1.10,2013-07-11 08:45:00,
2013-07-11 04:00:00,77.0,75.0,29.95,SE,127,0.0,2.0,92,0.00,,,0.00,weatherlink.com 1.10,2013-07-11 09:00:00,
2013-07-11 04:15:00,76.9,75.0,29.95,SE,127,1.0,2.0,92,0.00,,,0.00,weatherlink.com 1.10,2013-07-11 09:15:00,
2013-07-11 04:30:00,76.5,74.0,29.95,SE,127,0.0,1.0,92,0.00,,,0.00,weatherlink.com 1.10,2013-07-11 09:30:00,
2013-07-11 04:45:00,76.0,74.0,29.95,SE,128,0.0,0.0,93,0.00,,,0.00,weatherlink.com 1.10,2013-07-11 09:45:00,
2013-07-11 05:00:00,75.6,74.0,29.95,SE,127,0.0,0.0,93,0.00,,,0.00,weatherlink.com 1.10,2013-07-11 10:00:00,
2013-07-11 05:15:00,75.8,74.0,29.95,SE,127,0.0,0.0,94,0.00,,,0.00,weatherlink.com 1.10,2013-07-11 10:15:00,
2013-07-11 05:30:00,75.9,74.0,29.95,SE,127,0.0,0.0,94,0.00,,,0.00,weatherlink.com 1.10,2013-07-11 10:30:00,
2013-07-11 05:46:00,75.8,74.0,29.95,SE,127,0.0,0.0,94,0.00,,,0.00,weatherlink.com 1.10,2013-07-11 10:46:00,
2013-07-11 06:00:00,75.6,74.0,29.95,SE,128,0.0,0.0,94,0.00,,,0.00,weatherlink.com 1.10,2013-07-11 11:00:00,
2013-07-11 06:16:00,75.3,74.0,29.95,SE,127,0.0,0.0,94,0.00,,,0.00,weatherlink.com 1.10,2013-07-11 11:16:00,
2013-07-11 06:31:00,75.1,74.0,29.95,SE,127,0.0,0.0,95,0.00,,,0.00,weatherlink.com 1.10,2013-07-11 11:31:00,
2013-07-11 06:46:00,75.0,74.0,29.96,SE,128,0.0,0.0,95,0.00,,,0.00,weatherlink.com 1.10,2013-07-11 11:46:00,
2013-07-11 07:01:00,74.8,73.0,29.96,SE,127,0.0,0.0,95,0.00,,,0.00,weatherlink.com 1.10,2013-07-11 12:01:00,
2013-07-11 07:16:00,75.4,74.0,29.95,SE,127,0.0,0.0,96,0.00,,,0.00,weatherlink.com 1.10,2013-07-11 12:16:00,
2013-07-11 07:31:00,75.8,74.0,29.95,SE,128,0.0,1.0,95,0.00,,,0.00,weatherlink.com 1.10,2013-07-11 12:31:00,
2013-07-11 07:46:00,76.6,75.0,29.95,SE,127,0.0,1.0,95,0.00,,,0.00,weatherlink.com 1.10,2013-07-11 12:46:00,
2013-07-11 08:01:00,77.8,76.0,29.95,ESE,123,2.0,2.0,95,0.00,,,0.00,weatherlink.com 1.10,2013-07-11 13:01:00,
2013-07-11 08:16:00,79.5,77.0,29.95,ESE,115,0.0,2.0,92,0.00,,,0.00,weatherlink.com 1.10,2013-07-11 13:16:00,
2013-07-11 08:31:00,81.7,78.0,29.95,ESE,121,2.0,6.0,87,0.00,,,0.00,weatherlink.com 1.10,2013-07-11 13:31:00,
2013-07-11 08:46:00,83.3,77.0,29.95,SE,135,5.0,7.0,82,0.00,,,0.00,weatherlink.com 1.10,2013-07-11 13:46:00,
2013-07-11 09:01:00,85.3,78.0,29.94,SW,215,5.0,7.0,78,0.00,,,0.00,weatherlink.com 1.10,2013-07-11 14:01:00,
2013-07-11 09:31:00,86.3,76.0,29.95,SE,145,2.0,8.0,72,0.00,,,0.00,weatherlink.com 1.10,2013-07-11 14:31:00,
2013-07-11 10:01:00,89.4,77.0,29.95,WNW,293,1.0,4.0,66,0.00,,,0.00,weatherlink.com 1.10,2013-07-11 15:01:00,
2013-07-11 10:16:00,90.2,76.0,29.94,ESE,122,0.0,8.0,63,0.00,,,0.00,weatherlink.com 1.10,2013-07-11 15:16:00,
2013-07-11 10:31:00,90.9,75.0,29.94,WSW,238,1.0,7.0,60,0.00,,,0.00,weatherlink.com 1.10,2013-07-11 15:31:00,
2013-07-11 10:46:00,90.1,74.0,29.93,SE,138,3.0,8.0,60,0.00,,,0.00,weatherlink.com 1.10,2013-07-11 15:46:00,
2013-07-11 11:01:00,89.8,74.0,29.93,ESE,122,4.0,9.0,59,0.00,,,0.00,weatherlink.com 1.10,2013-07-11 16:01:00,
2013-07-11 11:31:00,91.2,75.0,29.93,SE,129,1.0,8.0,59,0.00,,,0.00,weatherlink.com 1.10,2013-07-11 16:31:00,
2013-07-11 11:46:00,91.4,74.0,29.93,SSE,158,0.0,4.0,57,0.00,,,0.00,weatherlink.com 1.10,2013-07-11 16:46:00,
2013-07-11 12:01:00,93.0,74.0,29.93,SSE,150,2.0,9.0,54,0.00,,,0.00,weatherlink.com 1.10,2013-07-11 17:01:00,
2013-07-11 12:32:00,94.7,73.0,29.92,SW,236,3.0,8.0,49,0.00,,,0.00,weatherlink.com 1.10,2013-07-11 17:32:00,
2013-07-11 12:47:00,93.7,73.0,29.92,ENE,74,1.0,6.0,51,0.00,,,0.00,weatherlink.com 1.10,2013-07-11 17:47:00,
2013-07-11 13:02:00,91.4,75.0,29.91,SSE,168,1.0,7.0,59,0.00,,,0.00,weatherlink.com 1.10,2013-07-11 18:02:00,
2013-07-11 13:17:00,92.3,74.0,29.91,South,188,3.0,8.0,56,0.00,,,0.00,weatherlink.com 1.10,2013-07-11 18:17:00,
2013-07-11 13:32:00,93.9,73.0,29.90,WSW,254,2.0,6.0,51,0.00,,,0.00,weatherlink.com 1.10,2013-07-11 18:32:00,
2013-07-11 13:47:00,94.1,74.0,29.89,SSE,147,7.0,11.0,53,0.00,,,0.00,weatherlink.com 1.10,2013-07-11 18:47:00,
2013-07-11 14:02:00,94.7,74.0,29.89,ENE,70,6.0,10.0,51,0.00,,,0.00,weatherlink.com 1.10,2013-07-11 19:02:00,
2013-07-11 14:17:00,94.6,74.0,29.88,SE,131,6.0,14.0,52,0.00,,,0.00,weatherlink.com 1.10,2013-07-11 19:17:00,
2013-07-11 14:32:00,95.7,74.0,29.89,ESE,108,3.0,12.0,49,0.00,,,0.00,weatherlink.com 1.10,2013-07-11 19:32:00,
2013-07-11 14:47:00,95.2,73.0,29.88,ESE,120,4.0,13.0,49,0.00,,,0.00,weatherlink.com 1.10,2013-07-11 19:47:00,
2013-07-11 15:02:00,95.7,73.0,29.88,SE,134,12.0,12.0,48,0.00,,,0.00,weatherlink.com 1.10,2013-07-11 20:02:00,
2013-07-11 15:17:00,95.7,73.0,29.87,East,83,2.0,15.0,48,0.00,,,0.00,weatherlink.com 1.10,2013-07-11 20:17:00,
2013-07-11 15:32:00,95.7,72.0,29.87,East,101,5.0,12.0,47,0.00,,,0.00,weatherlink.com 1.10,2013-07-11 20:32:00,
2013-07-11 15:47:00,95.6,73.0,29.87,ENE,75,5.0,14.0,48,0.00,,,0.00,weatherlink.com 1.10,2013-07-11 20:47:00,
2013-07-11 16:02:00,95.5,72.0,29.87,ESE,122,8.0,15.0,47,0.00,,,0.00,weatherlink.com 1.10,2013-07-11 21:02:00,
2013-07-11 16:17:00,95.1,71.0,29.87,ESE,115,2.0,12.0,46,0.00,,,0.00,weatherlink.com 1.10,2013-07-11 21:17:00,
2013-07-11 16:32:00,95.3,72.0,29.87,ESE,104,5.0,12.0,47,0.00,,,0.00,weatherlink.com 1.10,2013-07-11 21:32:00,
2013-07-11 16:47:00,94.5,71.0,29.87,East,91,7.0,11.0,47,0.00,,,0.00,weatherlink.com 1.10,2013-07-11 21:47:00,
2013-07-11 17:02:00,94.5,72.0,29.86,East,98,3.0,11.0,48,0.00,,,0.00,weatherlink.com 1.10,2013-07-11 22:02:00,
2013-07-11 17:17:00,94.3,71.0,29.86,ESE,105,7.0,13.0,47,0.00,,,0.00,weatherlink.com 1.10,2013-07-11 22:17:00,
2013-07-11 17:31:00,93.5,72.0,29.86,SE,146,12.0,16.0,50,0.00,,,0.00,weatherlink.com 1.10,2013-07-11 22:31:00,
2013-07-11 18:01:00,92.6,73.0,29.85,SSE,147,6.0,12.0,53,0.00,,,0.00,weatherlink.com 1.10,2013-07-11 23:01:00,
2013-07-11 18:17:00,91.6,74.0,29.86,East,91,5.0,14.0,57,0.00,,,0.00,weatherlink.com 1.10,2013-07-11 23:17:00,
2013-07-11 18:47:00,90.4,74.0,29.85,East,96,4.0,15.0,58,0.00,,,0.00,weatherlink.com 1.10,2013-07-11 23:47:00,